Latest Weather Observations for Hindmarsh Island

IDS60801

Issued at 2:35 pm CST Friday 18 April 2014 (issued every 30 minutes, with the page automatically refreshed every 10 minutes)

About weather observations | Map of weather stations | Latest weather observations for SA | Other Formats
Station Details ID: 023894 Name: HINDMARSH ISLAND AWS Lat: -35.52 Lon: 138.82 Height: 11.0 m
Data from the previous 72 hours. | See also: Recent months at Hindmarsh Island
Date/Time
CST
Temp
°C
App
Temp
°C
Dew
Point
Rel
Hum
%
Delta-T
°C
Wind Press
QNH
hPa
Press
MSL
hPa
Rain
since 9 am
mm
Dir
 
Spd
km/h
Gust
km/h
Spd
kts
Gust
kts
18/02:30pm 18.0 10.9 6.2 46 5.8 S 33 41 18 22 1022.0 - 0.0
18/02:00pm 17.3 10.7 7.6 53 4.9 S 32 37 17 20 1021.8 - 0.0
18/01:30pm 18.6 12.2 7.1 47 5.8 SSW 30 39 16 21 1021.7 - 0.0
18/01:00pm 18.0 11.5 8.0 52 5.1 S 32 37 17 20 1021.8 - 0.0
18/12:30pm 18.8 12.7 8.2 50 5.5 SSW 30 35 16 19 1021.9 - 0.0
18/12:00pm 19.1 12.4 7.2 46 6.0 SSW 32 37 17 20 1022.2 1022.1 0.0
18/11:30am 18.5 10.9 6.0 44 6.2 SSW 35 39 19 21 1022.2 - 0.0
18/11:00am 18.6 11.6 8.6 52 5.2 S 35 43 19 23 1022.0 - 0.0
18/10:30am 18.5 11.3 9.0 54 5.0 S 37 44 20 24 1021.9 - 0.0
18/10:00am 17.3 10.4 10.2 63 3.8 S 37 44 20 24 1021.5 - 0.0
18/09:30am 18.0 10.8 10.4 61 4.1 S 39 46 21 25 1021.3 - 0.0
18/09:00am 17.7 11.1 12.6 72 2.8 S 39 44 21 24 1020.9 1020.9 0.2
18/08:30am 17.5 12.6 13.6 78 2.2 SSW 32 39 17 21 1020.8 - 0.2
18/08:00am 17.1 10.9 12.8 76 2.4 SSW 37 43 20 23 1020.0 - 0.2
18/07:30am 16.5 12.0 13.8 84 1.5 SW 30 39 16 21 1019.8 - 0.2
18/07:00am 15.6 10.4 12.7 83 1.6 SW 32 39 17 21 1019.5 - 0.2
18/06:41am 16.0 9.6 13.1 83 1.6 SSW 39 44 21 24 1019.2 - 0.2
18/06:30am 16.4 11.3 13.7 84 1.5 WSW 33 50 18 27 1019.2 - 0.2
18/06:29am 16.4 11.4 13.5 83 1.6 WSW 32 50 17 27 1019.1 - 0.2
18/06:00am 17.4 14.6 13.3 77 2.3 W 20 28 11 15 1018.6 1018.5 0.0
18/05:30am 17.2 14.4 13.3 78 2.2 W 20 28 11 15 1018.5 - 0.0
18/05:00am 16.7 13.9 12.7 77 2.2 W 19 26 10 14 1018.3 - 0.0
18/04:30am 16.1 14.0 12.5 79 2.0 W 15 20 8 11 1018.1 - 0.0
18/04:00am 16.0 13.5 12.4 79 2.0 W 17 22 9 12 1018.1 - 0.0
18/03:30am 16.4 14.0 12.6 78 2.1 W 17 26 9 14 1018.0 - 0.0
18/03:00am 17.0 14.2 12.5 75 2.5 W 19 24 10 13 1018.3 1018.2 0.0
18/02:30am 17.6 13.4 12.3 71 2.9 W 26 35 14 19 1018.2 - 0.0
18/02:00am 17.5 15.1 13.8 79 2.1 W 19 24 10 13 1018.2 - 0.0
18/01:30am 17.1 15.4 13.6 80 2.0 WNW 15 19 8 10 1018.3 - 0.0
18/01:00am 16.8 14.5 13.1 79 2.1 NW 17 20 9 11 1018.1 - 0.0
18/12:30am 16.4 13.1 12.8 79 2.0 NW 22 30 12 16 1018.0 - 0.0
18/12:00am 15.6 13.4 12.0 79 2.0 NNW 15 20 8 11 1018.1 1018.0 0.0
 
Date/Time
CST
Temp
°C
App
Temp
°C
Dew
Point
Rel
Hum
%
Delta-T
°C
Wind Press
QNH
hPa
Press
MSL
hPa
Rain
since 9 am
mm
Dir
 
Spd
km/h
Gust
km/h
Spd
kts
Gust
kts
17/11:30pm 15.2 13.6 11.6 79 1.9 NNW 11 13 6 7 1018.5 - 0.0
17/11:00pm 15.2 13.3 11.8 80 1.8 NNW 13 13 7 7 1018.9 - 0.0
17/10:30pm 15.2 14.3 12.5 84 1.5 NW 9 13 5 7 1019.3 - 0.0
17/10:00pm 15.5 14.7 12.8 84 1.5 N 9 11 5 6 1019.3 - 0.0
17/09:30pm 15.7 14.9 13.0 84 1.5 N 9 11 5 6 1019.2 - 0.0
17/09:00pm 15.8 15.6 13.1 84 1.5 N 6 7 3 4 1019.2 1019.1 0.0
17/08:30pm 16.2 17.3 13.5 84 1.5 CALM 0 0 0 0 1019.2 - 0.0
17/08:00pm 16.0 15.9 13.3 84 1.5 NE 6 7 3 4 1019.0 - 0.0
17/07:30pm 15.5 14.2 12.6 83 1.6 NE 11 13 6 7 1018.8 - 0.0
17/07:00pm 16.2 15.5 13.1 82 1.7 ENE 9 11 5 6 1019.0 - 0.0
17/06:30pm 16.3 15.2 13.2 82 1.7 E 11 11 6 6 1018.8 - 0.0
17/06:00pm 17.3 17.2 13.8 80 2.0 SE 7 9 4 5 1018.9 1018.8 0.0
17/05:30pm 17.7 16.8 13.6 77 2.3 SE 11 13 6 7 1018.7 - 0.0
17/05:00pm 18.4 17.6 13.9 75 2.6 SE 11 15 6 8 1018.7 - 0.0
17/04:30pm 18.8 17.5 13.6 72 3.0 SSE 13 17 7 9 1018.5 - 0.0
17/04:00pm 19.4 17.9 14.2 72 3.0 SSE 15 19 8 10 1018.6 - 0.0
17/03:30pm 20.0 18.9 14.4 70 3.3 SSE 13 17 7 9 1018.8 - 0.0
17/03:00pm 19.6 18.5 14.2 71 3.1 S 13 17 7 9 1019.0 1018.9 0.0
17/02:30pm 19.8 18.1 13.7 68 3.5 S 15 17 8 9 1019.2 - 0.0
17/02:00pm 20.1 18.6 14.2 69 3.4 S 15 17 8 9 1019.4 - 0.0
17/01:30pm 20.3 18.7 14.0 67 3.6 S 15 19 8 10 1019.6 - 0.0
17/01:00pm 20.6 19.1 14.3 67 3.7 S 15 20 8 11 1019.9 - 0.0
17/12:30pm 20.5 19.1 14.4 68 3.6 S 15 17 8 9 1020.4 - 0.0
17/12:00pm 21.0 19.6 14.4 66 3.8 S 15 19 8 10 1020.9 1020.8 0.0
17/11:30am 21.3 21.1 13.7 62 4.4 S 7 9 4 5 1021.1 - 0.0
17/11:00am 20.1 19.3 14.0 68 3.5 SSW 11 15 6 8 1021.4 - 0.0
17/10:30am 19.5 19.0 13.9 70 3.2 S 9 15 5 8 1021.2 - 0.0
17/10:00am 20.4 20.3 13.4 64 4.0 NNE 6 9 3 5 1021.2 - 0.0
17/09:30am 19.4 19.9 14.0 71 3.1 NNW 4 6 2 3 1021.2 - 0.0
17/09:00am 18.8 20.1 14.1 74 2.7 CALM 0 6 0 3 1021.3 1021.2 0.0
17/08:30am 17.7 17.8 13.8 78 2.2 NW 6 9 3 5 1021.1 - 0.0
17/08:00am 16.7 16.7 13.6 82 1.7 NNW 6 9 3 5 1021.0 - 0.0
17/07:30am 15.9 15.3 13.4 85 1.4 WNW 9 11 5 6 1020.8 - 0.0
17/07:00am 15.7 15.4 13.4 86 1.3 WNW 7 9 4 5 1020.4 - 0.0
17/06:30am 15.2 14.8 12.9 86 1.3 NW 7 9 4 5 1020.2 - 0.0
17/06:00am 15.4 15.0 13.1 86 1.3 NW 7 9 4 5 1020.1 1020.0 0.0
17/05:30am 15.0 14.1 12.7 86 1.3 W 9 11 5 6 1020.0 - 0.0
17/05:00am 14.6 13.2 12.3 86 1.3 W 11 15 6 8 1019.9 - 0.0
17/04:30am 14.0 12.1 11.9 87 1.1 W 13 13 7 7 1019.6 - 0.0
17/04:00am 14.1 13.0 11.8 86 1.2 WNW 9 11 5 6 1019.3 - 0.0
17/03:30am 14.0 12.5 11.9 87 1.1 WNW 11 15 6 8 1019.3 - 0.0
17/03:00am 13.7 12.8 11.4 86 1.2 NNW 7 9 4 5 1019.3 1019.3 0.0
17/02:30am 13.6 12.6 11.1 85 1.3 NNW 7 9 4 5 1019.5 - 0.0
17/02:00am 13.3 11.5 10.8 85 1.3 NNW 11 13 6 7 1019.6 - 0.0
17/01:30am 13.1 11.2 10.6 85 1.3 N 11 13 6 7 1019.9 - 0.0
17/01:00am 13.5 11.7 10.7 83 1.5 N 11 11 6 6 1019.8 - 0.0
17/12:30am 13.3 12.1 10.3 82 1.6 NNW 7 9 4 5 1019.8 - 0.0
17/12:00am 13.5 12.2 9.9 79 1.8 NW 7 9 4 5 1019.8 1019.7 0.0
 
Date/Time
CST
Temp
°C
App
Temp
°C
Dew
Point
Rel
Hum
%
Delta-T
°C
Wind Press
QNH
hPa
Press
MSL
hPa
Rain
since 9 am
mm
Dir
 
Spd
km/h
Gust
km/h
Spd
kts
Gust
kts
16/11:30pm 13.9 11.9 10.1 78 2.0 NW 11 13 6 7 1020.0 - 0.0
16/11:00pm 13.7 12.0 9.9 78 2.0 NW 9 11 5 6 1020.2 - 0.0
16/10:30pm 13.9 12.6 9.9 77 2.1 NW 7 11 4 6 1020.1 - 0.0
16/10:00pm 14.3 12.8 10.5 78 2.0 NNW 9 11 5 6 1020.2 - 0.0
16/09:30pm 14.8 14.9 11.4 80 1.8 N 2 9 1 5 1020.1 - 0.0
16/09:00pm 15.2 14.3 11.2 77 2.1 N 7 9 4 5 1020.0 1019.9 0.0
16/08:30pm 15.7 14.6 11.9 78 2.1 N 9 11 5 6 1019.9 - 0.0
16/08:00pm 15.9 15.4 12.5 80 1.9 NNW 7 9 4 5 1019.9 - 0.0
16/07:30pm 16.1 16.1 12.3 78 2.1 NNW 4 7 2 4 1019.6 - 0.0
16/07:00pm 16.5 16.1 12.5 77 2.2 NNE 6 7 3 4 1019.4 - 0.0
16/06:30pm 16.1 15.4 11.9 76 2.3 E 7 9 4 5 1019.0 - 0.0
16/06:00pm 17.1 16.5 12.2 73 2.7 E 7 11 4 6 1018.9 1018.8 0.0
16/05:30pm 18.1 17.3 13.0 72 2.9 E 9 11 5 6 1018.8 - 0.0
16/05:00pm 18.9 17.6 13.7 72 3.0 SSE 13 17 7 9 1018.7 - 0.0
16/04:30pm 19.2 16.7 13.6 70 3.2 S 19 20 10 11 1018.8 - 0.0
16/04:00pm 19.8 16.7 13.3 66 3.7 S 22 26 12 14 1018.6 - 0.0
16/03:30pm 20.0 17.9 12.5 62 4.2 S 15 19 8 10 1018.5 - 0.0
16/03:00pm 20.9 19.0 11.8 56 5.1 S 13 15 7 8 1018.4 1018.3 0.0
16/02:30pm 21.2 18.4 12.6 58 4.9 S 19 22 10 12 1018.6 - 0.0
16/02:00pm 21.6 18.8 12.5 56 5.2 SSW 19 22 10 12 1018.7 - 0.0
16/01:30pm 21.4 19.3 12.3 56 5.1 S 15 22 8 12 1018.7 - 0.0
16/01:00pm 22.3 18.7 9.8 45 6.8 SSW 19 22 10 12 1018.6 - 0.0
16/12:30pm 22.8 18.8 6.6 35 8.3 W 17 20 9 11 1018.9 - 0.0
16/12:00pm 20.8 19.2 11.4 55 5.2 S 11 15 6 8 1019.4 1019.4 0.0
16/11:30am 21.2 19.1 11.0 52 5.6 SSW 13 17 7 9 1019.8 - 0.0
16/11:00am 20.6 18.9 11.2 55 5.2 SSW 11 13 6 7 1020.1 - 0.0
16/10:30am 19.2 17.1 11.3 60 4.3 SSW 13 15 7 8 1020.4 - 0.0
16/10:00am 19.9 18.2 10.0 53 5.3 WNW 9 13 5 7 1020.5 - 0.0
16/09:30am 17.5 16.6 11.3 67 3.4 NNW 7 11 4 6 1020.5 - 0.0
16/09:00am 15.7 13.8 11.7 77 2.2 N 13 17 7 9 1020.3 1020.2 0.0
16/08:30am 15.0 13.0 11.4 79 1.9 N 13 19 7 10 1020.3 - 0.0
16/08:00am 12.9 11.8 10.6 86 1.2 N 7 11 4 6 1020.5 - 0.0
16/07:30am 12.0 9.9 9.9 87 1.1 NNW 11 13 6 7 1020.2 - 0.0
16/07:00am 11.7 9.6 9.9 89 0.9 N 11 13 6 7 1019.9 - 0.0
16/06:30am 11.8 9.7 9.9 88 1.0 N 11 11 6 6 1020.2 - 0.0
16/06:00am 12.0 10.0 10.1 88 1.0 NNW 11 13 6 7 1020.5 1020.4 0.0
16/05:30am 12.1 10.1 10.2 88 1.0 NNW 11 11 6 6 1020.2 - 0.0
16/05:00am 12.1 10.1 10.3 89 0.9 NNW 11 13 6 7 1020.1 - 0.0
16/04:30am 11.8 9.8 10.2 90 0.8 NNW 11 11 6 6 1020.0 - 0.0
16/04:00am 11.9 10.3 10.3 90 0.8 NNW 9 11 5 6 1020.1 - 0.0
16/03:30am 11.7 9.7 10.1 90 0.8 N 11 13 6 7 1019.8 - 0.0
16/03:00am 11.8 10.1 10.0 89 0.9 NW 9 9 5 5 1020.3 1020.3 0.0
16/02:30am 12.7 11.3 10.9 89 0.9 WNW 9 11 5 6 1020.8 - 0.0
16/02:00am 12.9 11.5 11.0 88 1.0 WNW 9 11 5 6 1021.3 - 0.0
16/01:30am 13.0 11.7 11.1 88 1.0 WNW 9 11 5 6 1021.8 - 0.0
16/01:00am 12.8 12.0 10.9 88 1.0 WNW 6 7 3 4 1021.7 - 0.0
16/12:30am 13.4 12.2 11.5 88 1.0 WNW 9 11 5 6 1022.1 - 0.0
16/12:00am 13.6 12.7 11.5 87 1.1 NW 7 7 4 4 1021.8 1021.7 0.0
 
Date/Time
CST
Temp
°C
App
Temp
°C
Dew
Point
Rel
Hum
%
Delta-T
°C
Wind Press
QNH
hPa
Press
MSL
hPa
Rain
since 9 am
mm
Dir
 
Spd
km/h
Gust
km/h
Spd
kts
Gust
kts
15/11:30pm 14.0 14.5 11.7 86 1.2 CALM 0 0 0 0 1022.0 - 0.0
15/11:00pm 14.6 15.2 11.9 84 1.5 CALM 0 0 0 0 1022.2 - 0.0
15/10:30pm 15.1 14.5 12.2 83 1.6 SSE 7 9 4 5 1022.3 - 0.0
15/10:00pm 15.5 13.8 12.4 82 1.7 SSE 13 17 7 9 1022.4 - 0.0
15/09:30pm 15.7 13.6 12.3 80 1.9 SSE 15 19 8 10 1022.8 - 0.0
15/09:00pm 15.6 13.8 12.2 80 1.8 SSE 13 15 7 8 1022.6 1022.5 0.0
15/08:30pm 15.9 13.8 12.5 80 1.9 SSE 15 17 8 9 1022.5 - 0.0
15/08:00pm 16.0 13.1 12.4 79 2.0 S 19 20 10 11 1022.6 - 0.0
15/07:30pm 16.1 13.5 12.1 77 2.2 SSE 17 20 9 11 1022.5 - 0.0
15/07:00pm 15.9 12.8 11.7 76 2.3 SSE 19 22 10 12 1022.3 - 0.0
15/06:30pm 16.1 13.0 12.3 78 2.1 S 20 24 11 13 1022.4 - 0.0
15/06:00pm 16.3 13.2 12.3 77 2.2 S 20 24 11 13 1022.2 1022.1 0.0
15/05:30pm 16.4 13.2 12.0 75 2.4 S 20 24 11 13 1022.0 - 0.0
15/05:00pm 16.9 13.0 12.0 73 2.7 SSW 24 28 13 15 1022.0 - 0.0
15/04:30pm 17.5 13.6 12.2 71 2.9 SSW 24 30 13 16 1022.2 - 0.0
15/04:00pm 17.6 13.6 11.8 69 3.2 SSW 24 28 13 15 1021.6 - 0.0
15/03:30pm 17.8 14.1 11.6 67 3.4 S 22 26 12 14 1021.7 - 0.0
15/03:00pm 18.2 14.9 11.0 63 3.9 S 19 24 10 13 1021.8 1021.7 0.0

Other Formats:

Comma delimited format used in spreadsheet applications
http://www.bom.gov.au/fwo/IDS60801/IDS60801.94677.axf

JavaScript Object Notation format (JSON) in row-major order
http://www.bom.gov.au/fwo/IDS60801/IDS60801.94677.json